createdAt,value
2019-05-02T00:01:57.534Z,10.20
2019-05-02T00:04:26.951Z,10.20
2019-05-02T00:07:05.622Z,10.20
2019-05-02T00:09:36.300Z,10.20
2019-05-02T00:12:09.786Z,10.20
2019-05-02T00:14:39.487Z,10.10
2019-05-02T00:17:09.753Z,10.00
2019-05-02T00:19:39.257Z,9.90
2019-05-02T00:22:12.278Z,9.90
2019-05-02T00:24:41.685Z,9.80
2019-05-02T00:27:11.047Z,9.90
2019-05-02T00:29:40.552Z,9.90
2019-05-02T00:32:10.016Z,9.80
2019-05-02T00:34:39.300Z,9.90
2019-05-02T00:37:08.903Z,9.90
2019-05-02T00:39:38.481Z,9.80
2019-05-02T00:42:12.874Z,9.80
2019-05-02T00:44:42.042Z,9.70
2019-05-02T00:47:19.824Z,9.70
2019-05-02T00:49:49.275Z,9.70
2019-05-02T00:52:18.733Z,9.80
2019-05-02T00:54:48.273Z,9.70
2019-05-02T00:57:19.895Z,9.80
2019-05-02T00:59:48.769Z,9.80
2019-05-02T01:02:26.965Z,9.80
2019-05-02T01:04:59.272Z,9.80
2019-05-02T01:07:27.320Z,9.80
2019-05-02T01:09:56.893Z,9.90
2019-05-02T01:12:26.956Z,9.70
2019-05-02T01:14:56.584Z,9.70
2019-05-02T01:17:30.877Z,9.60
2019-05-02T01:19:57.714Z,9.60
2019-05-02T01:22:27.452Z,9.50
2019-05-02T01:24:56.936Z,9.50
2019-05-02T01:27:36.005Z,9.50
2019-05-02T01:30:20.809Z,9.50
2019-05-02T01:33:21.277Z,9.50
2019-05-02T01:36:06.385Z,9.50
2019-05-02T01:38:40.206Z,9.40
2019-05-02T01:41:09.568Z,9.40
2019-05-02T01:43:39.116Z,9.50
2019-05-02T01:46:08.444Z,9.50
2019-05-02T01:48:40.294Z,9.50
2019-05-02T01:51:11.878Z,9.50
2019-05-02T01:53:40.695Z,9.40
2019-05-02T01:56:10.271Z,9.40
2019-05-02T01:58:39.878Z,9.40
2019-05-02T02:01:09.385Z,9.40
2019-05-02T02:03:40.620Z,9.30
2019-05-02T02:06:10.303Z,9.40
2019-05-02T02:08:40.019Z,9.30
2019-05-02T02:11:09.589Z,9.30
2019-05-02T02:13:39.077Z,9.30
2019-05-02T02:16:08.625Z,9.30
2019-05-02T02:18:43.206Z,9.30
2019-05-02T02:21:37.981Z,9.20
2019-05-02T02:24:21.272Z,9.20
2019-05-02T02:26:49.953Z,9.20
2019-05-02T02:29:19.452Z,9.30
2019-05-02T02:31:49.102Z,9.30
2019-05-02T02:34:21.578Z,9.30
2019-05-02T02:36:49.697Z,9.40
2019-05-02T02:39:19.402Z,9.30
2019-05-02T02:41:52.028Z,9.30
2019-05-02T02:44:42.098Z,9.20
2019-05-02T02:47:18.292Z,9.20
2019-05-02T02:49:42.736Z,9.20
2019-05-02T02:52:12.321Z,9.30
2019-05-02T02:54:43.464Z,9.30
2019-05-02T02:57:25.727Z,9.30
2019-05-02T02:59:44.475Z,9.40
2019-05-02T03:02:14.086Z,9.40
2019-05-02T03:04:45.965Z,9.40
2019-05-02T03:07:24.058Z,9.30
2019-05-02T03:09:45.941Z,9.30
2019-05-02T03:12:36.264Z,9.30
2019-05-02T03:15:06.164Z,9.30
2019-05-02T03:17:35.897Z,9.30
2019-05-02T03:20:05.882Z,9.40
2019-05-02T03:22:41.958Z,9.40
2019-05-02T03:25:06.790Z,9.40
2019-05-02T03:27:37.705Z,9.40
2019-05-02T03:30:07.769Z,9.40
2019-05-02T03:32:37.252Z,9.50
2019-05-02T03:35:06.771Z,9.50
2019-05-02T03:37:36.608Z,9.50
2019-05-02T03:40:06.291Z,9.50
2019-05-02T03:42:43.935Z,9.50
2019-05-02T03:45:07.076Z,9.50
2019-05-02T03:47:43.316Z,9.50
2019-05-02T03:50:09.766Z,9.50
2019-05-02T03:52:43.818Z,9.50
2019-05-02T03:55:11.174Z,9.50
2019-05-02T03:57:42.101Z,9.60
2019-05-02T04:00:20.145Z,9.50
2019-05-02T04:02:44.308Z,9.60
2019-05-02T04:05:14.552Z,9.60
2019-05-02T04:07:44.081Z,9.60
2019-05-02T04:10:19.736Z,9.60
2019-05-02T04:12:53.286Z,9.60
2019-05-02T04:15:19.272Z,9.70
2019-05-02T04:17:49.404Z,9.70
2019-05-02T04:20:18.805Z,9.80
2019-05-02T04:22:49.007Z,9.80
2019-05-02T04:25:19.777Z,9.80
2019-05-02T04:27:50.395Z,9.70
2019-05-02T04:30:20.001Z,9.70
2019-05-02T04:32:55.286Z,9.70
2019-05-02T04:35:20.754Z,9.70
2019-05-02T04:37:50.314Z,9.70
2019-05-02T04:40:19.756Z,9.70
2019-05-02T04:42:51.260Z,9.80
2019-05-02T04:45:26.541Z,9.80
2019-05-02T04:47:59.010Z,9.90
2019-05-02T04:50:25.080Z,10.00
2019-05-02T04:52:54.236Z,10.10
2019-05-02T04:55:29.965Z,10.20
2019-05-02T04:57:55.209Z,10.20
2019-05-02T05:00:28.885Z,10.20
2019-05-02T05:02:58.735Z,10.20
2019-05-02T05:05:31.069Z,10.20
2019-05-02T05:07:59.481Z,10.20
2019-05-02T05:10:40.359Z,10.10
2019-05-02T05:13:00.419Z,10.20
2019-05-02T05:15:38.381Z,10.20
2019-05-02T05:18:04.399Z,10.30
2019-05-02T05:20:32.585Z,10.30
2019-05-02T05:23:02.359Z,10.30
2019-05-02T05:25:39.555Z,10.30
2019-05-02T05:28:09.220Z,10.40
2019-05-02T05:30:45.278Z,10.40
2019-05-02T05:33:10.400Z,10.40
2019-05-02T05:35:43.192Z,10.50
2019-05-02T05:38:11.075Z,10.50
2019-05-02T05:40:40.675Z,10.60
2019-05-02T05:43:14.579Z,10.70
2019-05-02T05:45:51.208Z,10.70
2019-05-02T05:48:13.831Z,10.70
2019-05-02T05:50:43.461Z,10.70
2019-05-02T05:53:17.301Z,10.80
2019-05-02T05:55:44.834Z,10.80
2019-05-02T05:58:15.752Z,10.90
2019-05-02T06:00:45.853Z,11.00
2019-05-02T06:03:17.945Z,11.10
2019-05-02T06:05:47.773Z,11.20
2019-05-02T06:08:18.359Z,11.30
2019-05-02T06:10:48.733Z,11.50
2019-05-02T06:13:18.624Z,11.70
2019-05-02T06:16:01.593Z,11.80
2019-05-02T06:18:22.609Z,11.90
2019-05-02T06:20:52.208Z,11.90
2019-05-02T06:23:21.723Z,12.00
2019-05-02T06:25:51.600Z,12.00
2019-05-02T06:28:21.026Z,12.00
2019-05-02T06:30:50.571Z,12.00
2019-05-02T06:33:20.311Z,12.00
2019-05-02T06:35:51.771Z,12.00
2019-05-02T06:38:22.931Z,12.00
2019-05-02T06:40:52.380Z,12.10
2019-05-02T06:43:22.156Z,12.20
2019-05-02T06:45:51.758Z,12.10
2019-05-02T06:48:21.486Z,12.20
2019-05-02T06:50:51.254Z,12.30
2019-05-02T06:53:20.792Z,12.40
2019-05-02T06:55:50.712Z,12.40
2019-05-02T06:58:20.471Z,12.40
2019-05-02T07:00:58.160Z,12.40
2019-05-02T07:03:21.686Z,12.40
2019-05-02T07:05:51.282Z,12.40
2019-05-02T07:08:20.997Z,12.40
2019-05-02T07:10:51.069Z,12.40
2019-05-02T07:13:20.570Z,12.30
2019-05-02T07:15:57.139Z,12.40
2019-05-02T07:18:28.196Z,12.50
2019-05-02T07:20:57.891Z,12.60
2019-05-02T07:23:27.669Z,12.70
2019-05-02T07:26:00.117Z,12.90
2019-05-02T07:28:28.632Z,13.00
2019-05-02T07:30:58.321Z,13.30
2019-05-02T07:33:32.451Z,13.20
2019-05-02T07:36:00.117Z,13.20
2019-05-02T07:38:30.196Z,13.20
2019-05-02T07:41:00.082Z,13.20
2019-05-02T07:43:30.012Z,13.30
2019-05-02T07:45:59.747Z,13.40
2019-05-02T07:48:29.303Z,13.40
2019-05-02T07:50:58.890Z,13.40
2019-05-02T07:53:28.571Z,13.50
2019-05-02T07:55:58.004Z,13.70
2019-05-02T07:58:27.505Z,13.80
2019-05-02T08:00:56.917Z,13.80
2019-05-02T08:03:29.355Z,13.70
2019-05-02T08:05:58.604Z,13.70
2019-05-02T08:08:29.803Z,13.60
2019-05-02T08:11:02.896Z,13.40
2019-05-02T08:13:31.525Z,13.40
2019-05-02T08:16:01.323Z,13.30
2019-05-02T08:18:31.767Z,13.50
2019-05-02T08:21:01.186Z,13.50
2019-05-02T08:23:30.811Z,13.60
2019-05-02T08:26:00.439Z,13.60
2019-05-02T08:28:35.609Z,13.70
2019-05-02T08:31:05.421Z,13.70
2019-05-02T08:33:35.952Z,13.70
2019-05-02T08:36:05.603Z,13.80
2019-05-02T08:38:35.290Z,13.90
2019-05-02T08:41:04.958Z,13.80
2019-05-02T08:43:34.498Z,13.70
2019-05-02T08:46:04.093Z,13.70
2019-05-02T08:48:36.458Z,13.70
2019-05-02T08:51:04.960Z,13.50
2019-05-02T08:53:34.734Z,13.60
2019-05-02T08:56:04.341Z,13.50
2019-05-02T08:58:34.281Z,13.50
2019-05-02T09:01:03.977Z,13.50
2019-05-02T09:03:38.854Z,13.30
2019-05-02T09:06:06.225Z,13.20
2019-05-02T09:08:35.922Z,13.20
2019-05-02T09:11:05.808Z,13.30
2019-05-02T09:13:35.276Z,13.30
2019-05-02T09:16:06.058Z,13.40
2019-05-02T09:18:39.591Z,13.70
2019-05-02T09:21:06.876Z,13.90
2019-05-02T09:23:37.234Z,14.10
2019-05-02T09:26:07.026Z,14.30
2019-05-02T09:28:36.672Z,14.30
2019-05-02T09:31:06.776Z,14.40
2019-05-02T09:33:36.878Z,14.50
2019-05-02T09:36:07.812Z,14.50
2019-05-02T09:38:37.443Z,14.60
2019-05-02T09:41:16.182Z,14.60
2019-05-02T09:43:39.259Z,14.50
2019-05-02T09:46:12.995Z,14.50
2019-05-02T09:48:40.154Z,14.50
2019-05-02T09:51:12.865Z,14.40
2019-05-02T09:53:43.015Z,14.40
2019-05-02T09:56:12.683Z,14.40
2019-05-02T09:58:43.859Z,14.40
2019-05-02T10:01:42.410Z,14.20
2019-05-02T10:04:12.124Z,14.20
2019-05-02T10:06:42.927Z,13.80
2019-05-02T10:09:12.881Z,13.50
2019-05-02T10:11:43.133Z,13.40
2019-05-02T10:14:13.311Z,13.30
2019-05-02T10:16:42.955Z,13.40
2019-05-02T10:19:13.515Z,13.40
2019-05-02T10:21:47.083Z,13.40
2019-05-02T10:24:14.145Z,13.40
2019-05-02T10:26:43.537Z,13.30
2019-05-02T10:29:13.023Z,13.20
2019-05-02T10:31:42.721Z,13.20
2019-05-02T10:34:16.349Z,13.20
2019-05-02T10:36:45.472Z,13.10
2019-05-02T10:39:15.832Z,13.10
2019-05-02T10:41:45.643Z,13.10
2019-05-02T10:44:15.141Z,13.10
2019-05-02T10:46:54.976Z,13.00
2019-05-02T10:49:32.276Z,13.00
2019-05-02T10:52:02.627Z,13.00
2019-05-02T10:54:33.815Z,12.90
2019-05-02T10:57:04.240Z,12.80
2019-05-02T10:59:33.691Z,12.70
2019-05-02T11:02:22.231Z,12.60
2019-05-02T11:04:55.044Z,12.60
2019-05-02T11:07:26.403Z,12.60
2019-05-02T11:09:57.322Z,12.60
2019-05-02T11:12:41.892Z,12.60
2019-05-02T11:15:22.375Z,12.50
2019-05-02T11:17:52.874Z,12.40
2019-05-02T11:20:22.497Z,12.40
2019-05-02T11:22:54.388Z,12.40
2019-05-02T11:25:23.131Z,12.60
2019-05-02T11:27:52.722Z,12.70
2019-05-02T11:30:26.381Z,12.70
2019-05-02T11:32:53.216Z,12.80
2019-05-02T11:35:23.475Z,12.90
2019-05-02T11:37:53.174Z,13.00
2019-05-02T11:40:22.801Z,13.20
2019-05-02T11:42:52.324Z,13.30
2019-05-02T11:45:22.693Z,13.40
2019-05-02T11:47:55.660Z,13.40
2019-05-02T11:50:26.635Z,13.40
2019-05-02T11:52:54.352Z,13.60
2019-05-02T11:55:28.712Z,13.80
2019-05-02T11:57:54.688Z,13.80
2019-05-02T12:00:24.431Z,14.10
2019-05-02T12:03:14.619Z,14.20
2019-05-02T12:05:44.284Z,14.40
2019-05-02T12:08:13.862Z,14.20
2019-05-02T12:10:43.259Z,14.20
2019-05-02T12:13:16.021Z,14.00
2019-05-02T12:15:44.411Z,14.10
2019-05-02T12:18:13.915Z,14.40
2019-05-02T12:20:43.684Z,14.70
2019-05-02T12:23:13.208Z,14.80
2019-05-02T12:25:42.634Z,15.00
2019-05-02T12:28:12.197Z,15.10
2019-05-02T12:30:42.069Z,15.00
2019-05-02T12:33:12.425Z,15.00
2019-05-02T12:35:43.227Z,14.90
2019-05-02T12:38:12.943Z,14.90
2019-05-02T12:40:42.480Z,15.10
2019-05-02T12:43:12.178Z,15.30
2019-05-02T12:45:42.188Z,15.30
2019-05-02T12:48:12.970Z,15.20
2019-05-02T12:50:43.063Z,15.10
2019-05-02T12:53:13.046Z,15.10
2019-05-02T12:55:42.532Z,15.10
2019-05-02T12:58:12.561Z,15.20
2019-05-02T13:00:43.094Z,15.20
2019-05-02T13:03:31.710Z,15.00
2019-05-02T13:06:02.977Z,15.20
2019-05-02T13:08:35.048Z,15.20
2019-05-02T13:11:15.249Z,15.20
2019-05-02T13:13:44.738Z,15.50
2019-05-02T13:16:14.374Z,15.80
2019-05-02T13:18:44.112Z,17.30
2019-05-02T13:21:17.056Z,18.90
2019-05-02T13:23:51.754Z,20.10
2019-05-02T13:26:26.563Z,21.50
2019-05-02T13:28:52.177Z,20.60
2019-05-02T13:31:33.872Z,20.50
2019-05-02T13:34:14.892Z,21.10
2019-05-02T13:36:45.535Z,20.80
2019-05-02T13:39:32.623Z,20.80
2019-05-02T13:42:02.163Z,19.30
2019-05-02T13:44:33.679Z,18.70
2019-05-02T13:47:03.172Z,19.10
2019-05-02T13:49:32.622Z,19.40
2019-05-02T13:52:02.542Z,20.70
2019-05-02T13:54:33.123Z,21.30
2019-05-02T13:57:03.216Z,21.60
2019-05-02T13:59:33.765Z,20.30
2019-05-02T14:02:05.012Z,19.80
2019-05-02T14:04:35.607Z,19.10
2019-05-02T14:07:07.697Z,19.10
2019-05-02T14:09:58.113Z,19.50
2019-05-02T14:12:48.664Z,19.70
2019-05-02T14:15:22.145Z,20.90
2019-05-02T14:17:52.530Z,24.00
2019-05-02T14:20:22.556Z,24.40
2019-05-02T14:22:52.771Z,23.80
2019-05-02T14:25:22.620Z,22.80
2019-05-02T14:27:55.515Z,23.40
2019-05-02T14:30:36.260Z,24.90
2019-05-02T14:32:59.119Z,25.20
2019-05-02T14:35:32.458Z,23.70
2019-05-02T14:38:23.624Z,22.90
2019-05-02T14:41:09.428Z,21.50
2019-05-02T14:43:53.290Z,21.10
2019-05-02T14:46:28.750Z,21.40
2019-05-02T14:48:55.646Z,23.50
2019-05-02T14:51:27.912Z,24.90
2019-05-02T14:54:05.840Z,23.60
2019-05-02T14:56:47.923Z,21.90
2019-05-02T14:59:19.763Z,21.90
2019-05-02T15:01:52.837Z,23.60
2019-05-02T15:04:22.725Z,24.50
2019-05-02T15:06:52.630Z,23.60
2019-05-02T15:09:26.821Z,22.40
2019-05-02T15:12:02.417Z,23.30
2019-05-02T15:14:36.017Z,25.40
2019-05-02T15:17:06.017Z,26.20
2019-05-02T15:19:35.409Z,27.60
2019-05-02T15:22:04.950Z,28.20
2019-05-02T15:24:37.642Z,28.50
2019-05-02T15:27:12.079Z,27.20
2019-05-02T15:29:36.654Z,27.70
2019-05-02T15:32:25.461Z,28.40
2019-05-02T15:35:28.709Z,28.50
2019-05-02T15:38:02.466Z,27.00
2019-05-02T15:43:04.595Z,27.50
2019-05-02T15:45:36.542Z,27.20
2019-05-02T15:48:03.434Z,27.40
2019-05-02T15:50:32.951Z,26.00
2019-05-02T15:53:10.161Z,26.20
2019-05-02T15:55:42.112Z,28.00
2019-05-02T15:58:22.671Z,29.20
2019-05-02T16:00:56.594Z,28.70
2019-05-02T16:03:45.478Z,25.60
2019-05-02T16:06:16.338Z,23.80
2019-05-02T16:08:47.381Z,23.50
2019-05-02T16:11:17.990Z,22.50
2019-05-02T16:13:52.734Z,21.90
2019-05-02T16:16:21.958Z,21.00
2019-05-02T16:18:52.551Z,20.10
2019-05-02T16:21:30.606Z,19.20
2019-05-02T16:24:17.454Z,18.70
2019-05-02T16:26:47.060Z,18.30
2019-05-02T16:29:23.421Z,18.30
2019-05-02T16:31:54.920Z,18.30
2019-05-02T16:34:27.416Z,17.80
2019-05-02T16:37:13.490Z,17.40
2019-05-02T16:39:44.395Z,17.40
2019-05-02T16:42:12.452Z,17.60
2019-05-02T16:44:42.971Z,17.50
2019-05-02T16:47:13.996Z,17.30
2019-05-02T16:49:47.821Z,17.20
2019-05-02T16:52:16.077Z,17.00
2019-05-02T16:54:45.629Z,16.90
2019-05-02T16:57:17.559Z,16.90
2019-05-02T16:59:46.474Z,16.90
2019-05-02T17:02:16.108Z,17.00
2019-05-02T17:04:45.702Z,17.10
2019-05-02T17:07:23.307Z,17.40
2019-05-02T17:10:08.491Z,17.80
2019-05-02T17:12:36.887Z,17.90
2019-05-02T17:15:26.286Z,18.60
2019-05-02T17:17:56.064Z,18.80
2019-05-02T17:20:25.801Z,18.70
2019-05-02T17:23:01.956Z,18.80
2019-05-02T17:25:26.632Z,18.90
2019-05-02T17:28:03.990Z,19.30
2019-05-02T17:30:26.245Z,19.60
2019-05-02T17:32:54.647Z,19.40
2019-05-02T17:35:23.591Z,19.50
2019-05-02T17:37:52.577Z,19.30
2019-05-02T17:40:22.493Z,19.40
2019-05-02T17:42:52.473Z,19.40
2019-05-02T17:45:23.741Z,19.30
2019-05-02T17:47:51.556Z,19.20
2019-05-02T17:50:42.316Z,19.50
2019-05-02T17:53:11.647Z,19.50
2019-05-02T17:55:44.251Z,19.40
2019-05-02T17:58:14.149Z,18.70
2019-05-02T18:00:47.388Z,17.70
2019-05-02T18:03:18.194Z,17.20
2019-05-02T18:05:47.931Z,16.50
2019-05-02T18:08:17.594Z,16.00
2019-05-02T18:10:50.691Z,15.80
2019-05-02T18:13:18.454Z,15.60
2019-05-02T18:15:47.951Z,15.50
2019-05-02T18:18:17.392Z,15.40
2019-05-02T18:20:47.881Z,15.30
2019-05-02T18:23:18.653Z,15.20
2019-05-02T18:25:48.477Z,15.30
2019-05-02T18:28:24.545Z,15.20
2019-05-02T18:30:50.127Z,15.10
2019-05-02T18:33:19.560Z,15.00
2019-05-02T18:35:49.412Z,15.00
2019-05-02T18:38:20.921Z,14.90
2019-05-02T18:40:52.457Z,14.70
2019-05-02T18:43:22.272Z,14.60
2019-05-02T18:45:51.901Z,14.60
2019-05-02T18:48:22.007Z,14.50
2019-05-02T18:50:52.677Z,14.40
2019-05-02T18:53:24.096Z,14.40
2019-05-02T18:55:56.777Z,14.40
2019-05-02T18:58:25.084Z,14.20
2019-05-02T19:00:55.068Z,14.20
2019-05-02T19:03:24.506Z,14.20
2019-05-02T19:05:57.159Z,14.10
2019-05-02T19:08:31.222Z,14.00
2019-05-02T19:11:06.066Z,13.90
2019-05-02T19:13:32.169Z,13.80
2019-05-02T19:15:59.721Z,13.80
2019-05-02T19:18:29.342Z,13.70
2019-05-02T19:21:03.750Z,13.60
2019-05-02T19:23:34.329Z,13.60
2019-05-02T19:26:10.269Z,13.60
2019-05-02T19:28:53.125Z,13.50
2019-05-02T19:31:24.594Z,13.60
2019-05-02T19:33:54.171Z,13.50
2019-05-02T19:36:27.466Z,13.50
2019-05-02T19:38:57.360Z,13.50
2019-05-02T19:41:26.056Z,13.50
2019-05-02T19:43:55.460Z,13.50
2019-05-02T19:46:34.683Z,13.50
2019-05-02T19:48:56.038Z,13.60
2019-05-02T19:51:28.102Z,13.50
2019-05-02T19:53:59.599Z,13.40
2019-05-02T19:56:33.331Z,13.40
2019-05-02T19:58:59.208Z,13.40
2019-05-02T20:01:28.621Z,13.30
2019-05-02T20:04:02.261Z,13.30
2019-05-02T20:06:29.118Z,13.40
2019-05-02T20:08:59.196Z,13.40
2019-05-02T20:11:32.830Z,13.30
2019-05-02T20:14:05.504Z,13.40
2019-05-02T20:16:52.799Z,13.30
2019-05-02T20:19:26.819Z,13.30
2019-05-02T20:22:04.768Z,13.20
2019-05-02T20:24:58.354Z,13.20
2019-05-02T20:27:28.249Z,13.20
2019-05-02T20:29:57.453Z,13.20
2019-05-02T20:32:27.083Z,13.30
2019-05-02T20:34:56.557Z,13.20
2019-05-02T20:37:26.274Z,13.20
2019-05-02T20:39:55.866Z,13.00
2019-05-02T20:42:25.574Z,13.00
2019-05-02T20:44:55.613Z,12.90
2019-05-02T20:47:26.263Z,13.00
2019-05-02T20:49:55.943Z,13.10
2019-05-02T20:52:25.617Z,13.10
2019-05-02T20:54:55.377Z,13.10
2019-05-02T20:57:24.871Z,13.00
2019-05-02T20:59:54.415Z,12.90
2019-05-02T21:02:23.970Z,12.80
2019-05-02T21:04:53.442Z,12.90
2019-05-02T21:07:42.415Z,12.80
2019-05-02T21:10:28.126Z,12.80
2019-05-02T21:12:57.645Z,12.90
2019-05-02T21:15:27.210Z,13.00
2019-05-02T21:17:56.821Z,13.10
2019-05-02T21:20:26.474Z,13.10
2019-05-02T21:22:56.382Z,13.10
2019-05-02T21:25:25.953Z,12.90
2019-05-02T21:27:55.437Z,12.80
2019-05-02T21:30:26.650Z,12.70
2019-05-02T21:32:56.283Z,12.70
2019-05-02T21:35:25.905Z,12.80
2019-05-02T21:37:55.417Z,12.90
2019-05-02T21:40:25.915Z,12.80
2019-05-02T21:42:55.537Z,12.70
2019-05-02T21:45:25.145Z,12.60
2019-05-02T21:47:54.827Z,12.70
2019-05-02T21:50:38.998Z,12.70
2019-05-02T21:53:23.827Z,12.80
2019-05-02T21:56:02.808Z,12.80
2019-05-02T21:58:32.629Z,12.70
2019-05-02T22:01:22.166Z,12.60
2019-05-02T22:03:52.154Z,12.50
2019-05-02T22:06:22.660Z,12.40
2019-05-02T22:08:52.388Z,12.30
2019-05-02T22:11:22.574Z,12.40
2019-05-02T22:13:52.169Z,12.30
2019-05-02T22:16:21.942Z,12.50
2019-05-02T22:18:52.184Z,12.50
2019-05-02T22:21:22.773Z,12.50
2019-05-02T22:23:52.336Z,12.50
2019-05-02T22:26:22.865Z,12.50
2019-05-02T22:28:53.759Z,12.40
2019-05-02T22:31:23.405Z,12.50
2019-05-02T22:33:53.019Z,12.50
2019-05-02T22:36:22.730Z,12.50
2019-05-02T22:39:14.261Z,12.30
2019-05-02T22:41:43.922Z,12.20
2019-05-02T22:44:13.443Z,12.20
2019-05-02T22:46:44.513Z,12.10
2019-05-02T22:49:15.092Z,12.00
2019-05-02T22:51:45.093Z,12.00
2019-05-02T22:54:26.714Z,12.00
2019-05-02T22:56:45.913Z,12.10
2019-05-02T22:59:15.476Z,12.10
2019-05-02T23:01:45.320Z,12.00
2019-05-02T23:04:14.811Z,12.00
2019-05-02T23:06:44.404Z,12.10
2019-05-02T23:09:13.947Z,12.10
2019-05-02T23:11:43.522Z,12.10
2019-05-02T23:14:13.049Z,12.10
2019-05-02T23:16:43.063Z,12.10
2019-05-02T23:19:12.786Z,12.20
2019-05-02T23:21:42.544Z,12.20
2019-05-02T23:24:18.173Z,12.20
2019-05-02T23:26:54.144Z,12.10
2019-05-02T23:29:23.649Z,12.20
2019-05-02T23:31:54.085Z,12.10
2019-05-02T23:34:23.715Z,12.10
2019-05-02T23:36:53.321Z,12.20
2019-05-02T23:39:22.805Z,12.20
2019-05-02T23:41:52.551Z,12.10
2019-05-02T23:44:22.882Z,12.10
2019-05-02T23:46:52.382Z,12.00
2019-05-02T23:49:22.128Z,12.00
2019-05-02T23:51:51.915Z,11.90
2019-05-02T23:54:22.059Z,11.90
2019-05-02T23:56:51.670Z,12.00
2019-05-02T23:59:22.343Z,12.00
